Hovedside
METAR-TAF:

METAR-TAF

Lufthavner :

Gällivare lufthavn

Gällivare, Sverige

breddegrad: 67-09N, lengdegrad: 020-39E, høyde over havet: 359 m

Gjeldene værobservasjon

Denne rapporten ble laget for 25 minutter siden, klokken 19:50 UTC
Vind 11 kt fra Vest
Temperatur 2°C
Luftfuktighet 87%
Trykk 981 hPa
Sikt 10 km eller mer
ingen skyer under 1500 m og ingen bygeskyer

METAR: ESNG 221950Z 27011KT CAVOK 02/M00 Q0981

Tid: 22:15 (20:15 UTC)

Varsel

Denne rapporten ble laget for 2 timer og 45 minutter siden, klokken 17:30 UTC
Varsel gyldig fra 22. klokken 18 UTC til 22. klokken 21 UTC
Vind 10 kt fra Sørvest med vindkast opp mot 20 kt
Sikt 10 km eller mer
Spredte skyer i en høyde av 2000 ft
Blir
fra 22. klokken 19 UTC til 22. klokken 21 UTC
Vind 8 kt fra Vest

TAF: ESNG 221730Z 2218/2221 22010G20KT 9999 SCT020 BECMG 2219/2221 28008KT

Værobservasjoner og værvarsel for over 4000 flyplasser (METAR- og TAF-rapporter).

Tilgjengelige stasjoner er representert av de røde og gule prikkene på kartet.

Hold musepekeren over prikken for å se navnet på stasjonen.

Klikk så for å se værobservasjoner og -varsler.

For å forandre kartet kan du klikke på den grønne knappen med svart kryss for å zoome inn, på den grønne knappen med strek for å zoome ut, eller på de grønne pilene for å se tilstøtende kart.


METAR-TAF: